sensor_id;sensor_type;location;lat;lon;timestamp;P1;durP1;ratioP1;P2;durP2;ratioP2
75236;SDS011;63826;48.100;-1.670;2023-03-01T00:02:17;4.88;;;2.75;;
75236;SDS011;63826;48.100;-1.670;2023-03-01T00:04:43;6.10;;;3.10;;
75236;SDS011;63826;48.100;-1.670;2023-03-01T00:07:09;5.07;;;3.00;;
75236;SDS011;63826;48.100;-1.670;2023-03-01T00:09:35;5.15;;;2.83;;
75236;SDS011;63826;48.100;-1.670;2023-03-01T00:12:02;5.27;;;3.00;;
75236;SDS011;63826;48.100;-1.670;2023-03-01T00:14:28;5.05;;;3.00;;
75236;SDS011;63826;48.100;-1.670;2023-03-01T00:16:54;4.38;;;2.70;;
75236;SDS011;63826;48.100;-1.670;2023-03-01T00:19:20;5.70;;;2.92;;
75236;SDS011;63826;48.100;-1.670;2023-03-01T00:21:49;5.43;;;2.88;;
75236;SDS011;63826;48.100;-1.670;2023-03-01T00:24:15;5.82;;;3.25;;
75236;SDS011;63826;48.100;-1.670;2023-03-01T00:26:41;4.78;;;2.88;;
75236;SDS011;63826;48.100;-1.670;2023-03-01T00:29:07;4.85;;;2.95;;
75236;SDS011;63826;48.100;-1.670;2023-03-01T00:31:33;5.78;;;3.50;;
75236;SDS011;63826;48.100;-1.670;2023-03-01T00:34:01;4.83;;;2.97;;
75236;SDS011;63826;48.100;-1.670;2023-03-01T00:36:28;6.35;;;3.33;;
75236;SDS011;63826;48.100;-1.670;2023-03-01T00:38:55;5.43;;;3.10;;
75236;SDS011;63826;48.100;-1.670;2023-03-01T00:41:21;5.57;;;2.80;;
75236;SDS011;63826;48.100;-1.670;2023-03-01T00:43:47;5.25;;;3.00;;
75236;SDS011;63826;48.100;-1.670;2023-03-01T00:46:15;5.40;;;2.90;;
75236;SDS011;63826;48.100;-1.670;2023-03-01T00:48:41;5.78;;;2.92;;
75236;SDS011;63826;48.100;-1.670;2023-03-01T00:51:08;7.00;;;3.38;;
75236;SDS011;63826;48.100;-1.670;2023-03-01T00:53:34;5.55;;;2.85;;
75236;SDS011;63826;48.100;-1.670;2023-03-01T00:56:00;4.80;;;2.75;;
75236;SDS011;63826;48.100;-1.670;2023-03-01T00:58:26;5.77;;;2.80;;
75236;SDS011;63826;48.100;-1.670;2023-03-01T01:00:52;4.22;;;2.90;;
75236;SDS011;63826;48.100;-1.670;2023-03-01T01:03:18;5.43;;;2.97;;
75236;SDS011;63826;48.100;-1.670;2023-03-01T01:05:45;5.53;;;2.88;;
75236;SDS011;63826;48.100;-1.670;2023-03-01T01:08:11;5.63;;;2.70;;
75236;SDS011;63826;48.100;-1.670;2023-03-01T01:10:37;5.27;;;2.87;;
75236;SDS011;63826;48.100;-1.670;2023-03-01T01:13:03;4.75;;;2.67;;
75236;SDS011;63826;48.100;-1.670;2023-03-01T01:15:33;5.43;;;2.97;;
75236;SDS011;63826;48.100;-1.670;2023-03-01T01:17:59;6.03;;;3.20;;
75236;SDS011;63826;48.100;-1.670;2023-03-01T01:20:25;5.40;;;2.97;;
75236;SDS011;63826;48.100;-1.670;2023-03-01T01:22:51;5.87;;;3.30;;
75236;SDS011;63826;48.100;-1.670;2023-03-01T01:25:18;5.03;;;2.80;;
75236;SDS011;63826;48.100;-1.670;2023-03-01T01:27:44;5.78;;;2.85;;
75236;SDS011;63826;48.100;-1.670;2023-03-01T01:30:10;5.32;;;2.90;;
75236;SDS011;63826;48.100;-1.670;2023-03-01T01:32:36;4.85;;;2.65;;
75236;SDS011;63826;48.100;-1.670;2023-03-01T01:35:02;5.80;;;2.93;;
75236;SDS011;63826;48.100;-1.670;2023-03-01T01:37:28;6.43;;;3.30;;
75236;SDS011;63826;48.100;-1.670;2023-03-01T01:39:56;5.63;;;2.92;;
75236;SDS011;63826;48.100;-1.670;2023-03-01T01:42:23;5.15;;;2.70;;
75236;SDS011;63826;48.100;-1.670;2023-03-01T01:45:15;5.63;;;3.28;;
75236;SDS011;63826;48.100;-1.670;2023-03-01T01:47:34;5.63;;;3.33;;
75236;SDS011;63826;48.100;-1.670;2023-03-01T01:50:00;5.78;;;3.08;;
75236;SDS011;63826;48.100;-1.670;2023-03-01T01:52:29;5.63;;;3.00;;
75236;SDS011;63826;48.100;-1.670;2023-03-01T01:57:30;5.90;;;3.20;;
75236;SDS011;63826;48.100;-1.670;2023-03-01T01:59:59;4.63;;;2.83;;
75236;SDS011;63826;48.100;-1.670;2023-03-01T02:02:26;5.97;;;3.17;;
75236;SDS011;63826;48.100;-1.670;2023-03-01T02:04:54;6.47;;;3.72;;
75236;SDS011;63826;48.100;-1.670;2023-03-01T02:07:24;4.80;;;2.78;;
75236;SDS011;63826;48.100;-1.670;2023-03-01T02:09:50;4.65;;;2.90;;
75236;SDS011;63826;48.100;-1.670;2023-03-01T02:12:18;5.50;;;2.90;;
75236;SDS011;63826;48.100;-1.670;2023-03-01T02:14:45;5.72;;;2.95;;
75236;SDS011;63826;48.100;-1.670;2023-03-01T02:17:11;5.05;;;3.00;;
75236;SDS011;63826;48.100;-1.670;2023-03-01T02:22:24;5.47;;;3.13;;
75236;SDS011;63826;48.100;-1.670;2023-03-01T02:27:40;6.13;;;3.20;;
75236;SDS011;63826;48.100;-1.670;2023-03-01T02:30:07;5.20;;;3.10;;
75236;SDS011;63826;48.100;-1.670;2023-03-01T02:32:37;5.50;;;2.80;;
75236;SDS011;63826;48.100;-1.670;2023-03-01T02:35:06;6.10;;;3.17;;
75236;SDS011;63826;48.100;-1.670;2023-03-01T02:37:33;6.33;;;2.80;;
75236;SDS011;63826;48.100;-1.670;2023-03-01T02:40:03;4.68;;;2.58;;
75236;SDS011;63826;48.100;-1.670;2023-03-01T02:42:33;5.32;;;3.10;;
75236;SDS011;63826;48.100;-1.670;2023-03-01T02:45:01;5.25;;;3.00;;
75236;SDS011;63826;48.100;-1.670;2023-03-01T02:47:27;4.95;;;2.75;;
75236;SDS011;63826;48.100;-1.670;2023-03-01T02:49:53;5.80;;;3.20;;
75236;SDS011;63826;48.100;-1.670;2023-03-01T02:54:50;6.28;;;3.20;;
75236;SDS011;63826;48.100;-1.670;2023-03-01T02:57:17;5.85;;;2.80;;
75236;SDS011;63826;48.100;-1.670;2023-03-01T02:59:44;5.40;;;2.92;;
75236;SDS011;63826;48.100;-1.670;2023-03-01T03:02:20;4.93;;;2.77;;
75236;SDS011;63826;48.100;-1.670;2023-03-01T03:05:00;5.57;;;3.08;;
75236;SDS011;63826;48.100;-1.670;2023-03-01T03:07:26;5.95;;;3.20;;
75236;SDS011;63826;48.100;-1.670;2023-03-01T03:09:52;5.53;;;3.05;;
75236;SDS011;63826;48.100;-1.670;2023-03-01T03:12:18;5.47;;;2.67;;
75236;SDS011;63826;48.100;-1.670;2023-03-01T03:14:44;6.35;;;3.05;;
75236;SDS011;63826;48.100;-1.670;2023-03-01T03:17:10;6.90;;;3.15;;
75236;SDS011;63826;48.100;-1.670;2023-03-01T03:19:36;4.83;;;2.97;;
75236;SDS011;63826;48.100;-1.670;2023-03-01T03:22:02;5.05;;;2.90;;
75236;SDS011;63826;48.100;-1.670;2023-03-01T03:24:28;5.95;;;3.10;;
75236;SDS011;63826;48.100;-1.670;2023-03-01T03:27:02;6.07;;;3.13;;
75236;SDS011;63826;48.100;-1.670;2023-03-01T03:29:28;4.78;;;2.90;;
75236;SDS011;63826;48.100;-1.670;2023-03-01T03:31:54;5.13;;;2.67;;
75236;SDS011;63826;48.100;-1.670;2023-03-01T03:34:20;5.03;;;2.80;;
75236;SDS011;63826;48.100;-1.670;2023-03-01T03:36:46;5.65;;;2.70;;
75236;SDS011;63826;48.100;-1.670;2023-03-01T03:39:12;4.50;;;2.72;;
75236;SDS011;63826;48.100;-1.670;2023-03-01T03:41:38;5.35;;;2.75;;
75236;SDS011;63826;48.100;-1.670;2023-03-01T03:44:04;6.37;;;3.23;;
75236;SDS011;63826;48.100;-1.670;2023-03-01T03:46:30;5.20;;;2.80;;
75236;SDS011;63826;48.100;-1.670;2023-03-01T03:48:56;4.80;;;2.58;;
75236;SDS011;63826;48.100;-1.670;2023-03-01T03:51:22;5.00;;;2.80;;
75236;SDS011;63826;48.100;-1.670;2023-03-01T03:53:48;5.70;;;2.70;;
75236;SDS011;63826;48.100;-1.670;2023-03-01T03:56:14;6.53;;;3.15;;
75236;SDS011;63826;48.100;-1.670;2023-03-01T03:58:40;5.40;;;2.78;;
75236;SDS011;63826;48.100;-1.670;2023-03-01T04:01:06;5.20;;;2.72;;
75236;SDS011;63826;48.100;-1.670;2023-03-01T04:03:33;5.23;;;2.80;;
75236;SDS011;63826;48.100;-1.670;2023-03-01T04:06:00;5.18;;;2.97;;
75236;SDS011;63826;48.100;-1.670;2023-03-01T04:08:26;5.15;;;2.90;;
75236;SDS011;63826;48.100;-1.670;2023-03-01T04:10:56;6.22;;;3.00;;
75236;SDS011;63826;48.100;-1.670;2023-03-01T04:13:23;5.82;;;3.05;;
75236;SDS011;63826;48.100;-1.670;2023-03-01T04:15:50;5.78;;;3.20;;
75236;SDS011;63826;48.100;-1.670;2023-03-01T04:18:17;4.88;;;3.35;;
75236;SDS011;63826;48.100;-1.670;2023-03-01T04:20:44;5.50;;;3.20;;
75236;SDS011;63826;48.100;-1.670;2023-03-01T04:23:14;5.35;;;3.05;;
75236;SDS011;63826;48.100;-1.670;2023-03-01T04:28:21;5.07;;;2.75;;
75236;SDS011;63826;48.100;-1.670;2023-03-01T04:30:49;5.00;;;2.95;;
75236;SDS011;63826;48.100;-1.670;2023-03-01T04:33:14;6.25;;;3.60;;
75236;SDS011;63826;48.100;-1.670;2023-03-01T04:35:41;5.65;;;3.00;;
75236;SDS011;63826;48.100;-1.670;2023-03-01T04:38:07;5.88;;;3.08;;
75236;SDS011;63826;48.100;-1.670;2023-03-01T04:40:33;5.50;;;3.13;;
75236;SDS011;63826;48.100;-1.670;2023-03-01T04:43:00;6.00;;;3.13;;
75236;SDS011;63826;48.100;-1.670;2023-03-01T04:45:26;5.30;;;3.05;;
75236;SDS011;63826;48.100;-1.670;2023-03-01T04:47:52;5.30;;;2.90;;
75236;SDS011;63826;48.100;-1.670;2023-03-01T04:50:19;5.80;;;3.30;;
75236;SDS011;63826;48.100;-1.670;2023-03-01T04:52:48;5.77;;;3.10;;
75236;SDS011;63826;48.100;-1.670;2023-03-01T04:55:14;5.70;;;3.15;;
75236;SDS011;63826;48.100;-1.670;2023-03-01T04:57:40;5.93;;;3.17;;
75236;SDS011;63826;48.100;-1.670;2023-03-01T05:00:08;6.47;;;3.53;;
75236;SDS011;63826;48.100;-1.670;2023-03-01T05:02:51;6.13;;;3.35;;
75236;SDS011;63826;48.100;-1.670;2023-03-01T05:07:50;6.32;;;3.20;;
75236;SDS011;63826;48.100;-1.670;2023-03-01T05:10:16;5.85;;;3.13;;
75236;SDS011;63826;48.100;-1.670;2023-03-01T05:12:42;5.70;;;3.22;;
75236;SDS011;63826;48.100;-1.670;2023-03-01T05:15:08;5.38;;;3.17;;
75236;SDS011;63826;48.100;-1.670;2023-03-01T05:17:34;6.50;;;3.45;;
75236;SDS011;63826;48.100;-1.670;2023-03-01T05:20:00;5.85;;;3.35;;
75236;SDS011;63826;48.100;-1.670;2023-03-01T05:22:27;6.47;;;3.40;;
75236;SDS011;63826;48.100;-1.670;2023-03-01T05:24:54;6.43;;;3.60;;
75236;SDS011;63826;48.100;-1.670;2023-03-01T05:27:20;5.80;;;3.60;;
75236;SDS011;63826;48.100;-1.670;2023-03-01T05:29:47;5.88;;;3.00;;
75236;SDS011;63826;48.100;-1.670;2023-03-01T05:32:13;5.75;;;3.05;;
75236;SDS011;63826;48.100;-1.670;2023-03-01T05:34:40;6.15;;;3.20;;
75236;SDS011;63826;48.100;-1.670;2023-03-01T05:37:06;6.97;;;3.25;;
75236;SDS011;63826;48.100;-1.670;2023-03-01T05:39:33;5.82;;;3.13;;
75236;SDS011;63826;48.100;-1.670;2023-03-01T05:42:00;5.55;;;3.40;;
75236;SDS011;63826;48.100;-1.670;2023-03-01T05:44:27;5.68;;;3.30;;
75236;SDS011;63826;48.100;-1.670;2023-03-01T05:46:53;5.97;;;3.40;;
75236;SDS011;63826;48.100;-1.670;2023-03-01T05:49:20;5.68;;;3.10;;
75236;SDS011;63826;48.100;-1.670;2023-03-01T05:51:49;6.32;;;3.45;;
75236;SDS011;63826;48.100;-1.670;2023-03-01T05:54:16;5.43;;;3.22;;
75236;SDS011;63826;48.100;-1.670;2023-03-01T05:56:42;6.15;;;3.13;;
75236;SDS011;63826;48.100;-1.670;2023-03-01T05:59:08;6.10;;;3.38;;
75236;SDS011;63826;48.100;-1.670;2023-03-01T06:01:34;6.70;;;3.60;;
75236;SDS011;63826;48.100;-1.670;2023-03-01T06:04:01;5.27;;;3.10;;
75236;SDS011;63826;48.100;-1.670;2023-03-01T06:06:27;6.47;;;3.28;;
75236;SDS011;63826;48.100;-1.670;2023-03-01T06:08:54;5.65;;;3.30;;
75236;SDS011;63826;48.100;-1.670;2023-03-01T06:11:20;6.38;;;3.53;;
75236;SDS011;63826;48.100;-1.670;2023-03-01T06:13:46;5.57;;;3.22;;
75236;SDS011;63826;48.100;-1.670;2023-03-01T06:16:14;6.13;;;3.42;;
75236;SDS011;63826;48.100;-1.670;2023-03-01T06:18:40;5.45;;;3.17;;
75236;SDS011;63826;48.100;-1.670;2023-03-01T06:21:06;6.13;;;3.33;;
75236;SDS011;63826;48.100;-1.670;2023-03-01T06:23:33;6.35;;;3.00;;
75236;SDS011;63826;48.100;-1.670;2023-03-01T06:25:59;5.65;;;3.10;;
75236;SDS011;63826;48.100;-1.670;2023-03-01T06:28:25;6.50;;;3.60;;
75236;SDS011;63826;48.100;-1.670;2023-03-01T06:30:51;5.60;;;3.33;;
75236;SDS011;63826;48.100;-1.670;2023-03-01T06:33:18;5.22;;;3.00;;
75236;SDS011;63826;48.100;-1.670;2023-03-01T06:35:46;6.28;;;3.15;;
75236;SDS011;63826;48.100;-1.670;2023-03-01T06:38:12;5.85;;;3.30;;
75236;SDS011;63826;48.100;-1.670;2023-03-01T06:40:40;6.28;;;3.33;;
75236;SDS011;63826;48.100;-1.670;2023-03-01T06:43:06;5.57;;;3.00;;
75236;SDS011;63826;48.100;-1.670;2023-03-01T06:45:32;5.90;;;3.42;;
75236;SDS011;63826;48.100;-1.670;2023-03-01T06:48:04;5.88;;;3.00;;
75236;SDS011;63826;48.100;-1.670;2023-03-01T06:50:31;5.32;;;3.05;;
75236;SDS011;63826;48.100;-1.670;2023-03-01T06:52:57;6.72;;;3.80;;
75236;SDS011;63826;48.100;-1.670;2023-03-01T06:55:23;6.15;;;3.47;;
75236;SDS011;63826;48.100;-1.670;2023-03-01T06:57:53;6.25;;;3.33;;
75236;SDS011;63826;48.100;-1.670;2023-03-01T07:00:20;6.47;;;3.50;;
75236;SDS011;63826;48.100;-1.670;2023-03-01T07:02:46;6.75;;;3.80;;
75236;SDS011;63826;48.100;-1.670;2023-03-01T07:05:12;5.97;;;3.50;;
75236;SDS011;63826;48.100;-1.670;2023-03-01T07:07:38;6.82;;;3.40;;
75236;SDS011;63826;48.100;-1.670;2023-03-01T07:10:04;6.32;;;3.22;;
75236;SDS011;63826;48.100;-1.670;2023-03-01T07:12:30;6.13;;;3.58;;
75236;SDS011;63826;48.100;-1.670;2023-03-01T07:14:56;5.37;;;3.10;;
75236;SDS011;63826;48.100;-1.670;2023-03-01T07:17:22;6.30;;;3.42;;
75236;SDS011;63826;48.100;-1.670;2023-03-01T07:19:48;6.93;;;3.45;;
75236;SDS011;63826;48.100;-1.670;2023-03-01T07:22:14;5.43;;;3.30;;
75236;SDS011;63826;48.100;-1.670;2023-03-01T07:24:41;6.10;;;3.40;;
75236;SDS011;63826;48.100;-1.670;2023-03-01T07:27:07;6.75;;;3.35;;
75236;SDS011;63826;48.100;-1.670;2023-03-01T07:29:33;5.40;;;2.90;;
75236;SDS011;63826;48.100;-1.670;2023-03-01T07:32:01;6.00;;;3.20;;
75236;SDS011;63826;48.100;-1.670;2023-03-01T07:34:27;7.20;;;3.75;;
75236;SDS011;63826;48.100;-1.670;2023-03-01T07:36:53;6.97;;;3.90;;
75236;SDS011;63826;48.100;-1.670;2023-03-01T07:39:19;6.00;;;3.30;;
75236;SDS011;63826;48.100;-1.670;2023-03-01T07:41:45;6.25;;;3.08;;
75236;SDS011;63826;48.100;-1.670;2023-03-01T07:44:11;5.63;;;3.17;;
75236;SDS011;63826;48.100;-1.670;2023-03-01T07:46:37;7.65;;;3.95;;
75236;SDS011;63826;48.100;-1.670;2023-03-01T07:49:03;11.90;;;4.27;;
75236;SDS011;63826;48.100;-1.670;2023-03-01T07:51:29;9.75;;;4.28;;
75236;SDS011;63826;48.100;-1.670;2023-03-01T07:53:55;9.45;;;4.15;;
75236;SDS011;63826;48.100;-1.670;2023-03-01T07:56:21;9.10;;;3.80;;
75236;SDS011;63826;48.100;-1.670;2023-03-01T07:58:47;8.80;;;3.60;;
75236;SDS011;63826;48.100;-1.670;2023-03-01T08:01:14;6.82;;;3.47;;
75236;SDS011;63826;48.100;-1.670;2023-03-01T08:03:41;6.55;;;3.05;;
75236;SDS011;63826;48.100;-1.670;2023-03-01T08:06:08;6.78;;;3.20;;
75236;SDS011;63826;48.100;-1.670;2023-03-01T08:08:35;5.72;;;3.20;;
75236;SDS011;63826;48.100;-1.670;2023-03-01T08:11:02;7.63;;;3.00;;
75236;SDS011;63826;48.100;-1.670;2023-03-01T08:13:28;6.90;;;3.15;;
75236;SDS011;63826;48.100;-1.670;2023-03-01T08:15:59;6.93;;;3.17;;
75236;SDS011;63826;48.100;-1.670;2023-03-01T08:18:25;6.10;;;3.10;;
75236;SDS011;63826;48.100;-1.670;2023-03-01T08:20:51;9.32;;;3.70;;
75236;SDS011;63826;48.100;-1.670;2023-03-01T08:23:17;6.07;;;3.10;;
75236;SDS011;63826;48.100;-1.670;2023-03-01T08:25:43;5.43;;;3.05;;
75236;SDS011;63826;48.100;-1.670;2023-03-01T08:28:09;7.72;;;3.67;;
75236;SDS011;63826;48.100;-1.670;2023-03-01T08:30:35;7.10;;;3.30;;
75236;SDS011;63826;48.100;-1.670;2023-03-01T08:33:01;7.47;;;3.30;;
75236;SDS011;63826;48.100;-1.670;2023-03-01T08:35:27;7.75;;;3.28;;
75236;SDS011;63826;48.100;-1.670;2023-03-01T08:37:53;6.75;;;3.22;;
75236;SDS011;63826;48.100;-1.670;2023-03-01T08:40:19;7.18;;;2.95;;
75236;SDS011;63826;48.100;-1.670;2023-03-01T08:42:45;5.55;;;2.95;;
75236;SDS011;63826;48.100;-1.670;2023-03-01T08:45:11;5.73;;;2.60;;
75236;SDS011;63826;48.100;-1.670;2023-03-01T08:47:39;5.35;;;2.78;;
75236;SDS011;63826;48.100;-1.670;2023-03-01T08:50:05;9.05;;;2.90;;
75236;SDS011;63826;48.100;-1.670;2023-03-01T08:52:31;6.43;;;2.95;;
75236;SDS011;63826;48.100;-1.670;2023-03-01T08:54:57;5.95;;;2.90;;
75236;SDS011;63826;48.100;-1.670;2023-03-01T08:57:26;7.75;;;3.03;;
75236;SDS011;63826;48.100;-1.670;2023-03-01T08:59:52;6.43;;;3.38;;
75236;SDS011;63826;48.100;-1.670;2023-03-01T09:02:21;6.32;;;2.90;;
75236;SDS011;63826;48.100;-1.670;2023-03-01T09:04:47;8.70;;;2.80;;
75236;SDS011;63826;48.100;-1.670;2023-03-01T09:07:13;7.03;;;2.83;;
75236;SDS011;63826;48.100;-1.670;2023-03-01T09:09:39;9.40;;;2.85;;
75236;SDS011;63826;48.100;-1.670;2023-03-01T09:12:05;6.38;;;2.67;;
75236;SDS011;63826;48.100;-1.670;2023-03-01T09:14:31;6.40;;;2.70;;
75236;SDS011;63826;48.100;-1.670;2023-03-01T09:16:57;6.43;;;3.10;;
75236;SDS011;63826;48.100;-1.670;2023-03-01T09:19:23;5.57;;;2.80;;
75236;SDS011;63826;48.100;-1.670;2023-03-01T09:21:49;4.88;;;2.58;;
75236;SDS011;63826;48.100;-1.670;2023-03-01T09:24:19;5.70;;;2.75;;
75236;SDS011;63826;48.100;-1.670;2023-03-01T09:26:45;5.57;;;2.70;;
75236;SDS011;63826;48.100;-1.670;2023-03-01T09:29:12;6.23;;;2.50;;
75236;SDS011;63826;48.100;-1.670;2023-03-01T09:31:39;7.80;;;2.92;;
75236;SDS011;63826;48.100;-1.670;2023-03-01T09:34:05;5.80;;;2.30;;
75236;SDS011;63826;48.100;-1.670;2023-03-01T09:36:31;6.90;;;2.80;;
75236;SDS011;63826;48.100;-1.670;2023-03-01T09:38:58;9.13;;;2.38;;
75236;SDS011;63826;48.100;-1.670;2023-03-01T09:46:45;5.88;;;2.42;;
75236;SDS011;63826;48.100;-1.670;2023-03-01T09:49:15;6.82;;;2.28;;
75236;SDS011;63826;48.100;-1.670;2023-03-01T09:51:43;6.68;;;2.75;;
75236;SDS011;63826;48.100;-1.670;2023-03-01T09:54:14;7.03;;;2.40;;
75236;SDS011;63826;48.100;-1.670;2023-03-01T09:56:41;6.05;;;2.60;;
75236;SDS011;63826;48.100;-1.670;2023-03-01T10:01:52;6.68;;;2.60;;
75236;SDS011;63826;48.100;-1.670;2023-03-01T10:09:36;8.65;;;2.50;;
75236;SDS011;63826;48.100;-1.670;2023-03-01T10:12:03;12.68;;;2.60;;
75236;SDS011;63826;48.100;-1.670;2023-03-01T10:14:33;5.97;;;2.53;;
75236;SDS011;63826;48.100;-1.670;2023-03-01T10:19:34;7.47;;;2.50;;
75236;SDS011;63826;48.100;-1.670;2023-03-01T10:22:11;8.07;;;2.40;;
75236;SDS011;63826;48.100;-1.670;2023-03-01T10:24:39;7.55;;;2.60;;
75236;SDS011;63826;48.100;-1.670;2023-03-01T10:32:29;7.77;;;3.40;;
75236;SDS011;63826;48.100;-1.670;2023-03-01T10:34:56;8.38;;;3.88;;
75236;SDS011;63826;48.100;-1.670;2023-03-01T10:37:22;7.75;;;3.30;;
75236;SDS011;63826;48.100;-1.670;2023-03-01T10:39:54;8.13;;;3.90;;
75236;SDS011;63826;48.100;-1.670;2023-03-01T10:42:54;8.27;;;4.40;;
75236;SDS011;63826;48.100;-1.670;2023-03-01T10:47:42;7.95;;;3.47;;
75236;SDS011;63826;48.100;-1.670;2023-03-01T10:50:17;6.30;;;2.80;;
75236;SDS011;63826;48.100;-1.670;2023-03-01T10:52:47;7.25;;;3.25;;
75236;SDS011;63826;48.100;-1.670;2023-03-01T10:55:24;7.38;;;2.95;;
75236;SDS011;63826;48.100;-1.670;2023-03-01T11:00:49;6.03;;;2.70;;
75236;SDS011;63826;48.100;-1.670;2023-03-01T11:03:17;7.13;;;2.88;;
75236;SDS011;63826;48.100;-1.670;2023-03-01T11:05:54;5.68;;;2.50;;
75236;SDS011;63826;48.100;-1.670;2023-03-01T11:08:31;6.60;;;2.70;;
75236;SDS011;63826;48.100;-1.670;2023-03-01T11:13:32;6.25;;;2.42;;
75236;SDS011;63826;48.100;-1.670;2023-03-01T11:16:02;5.60;;;2.55;;
75236;SDS011;63826;48.100;-1.670;2023-03-01T11:18:29;6.32;;;2.60;;
75236;SDS011;63826;48.100;-1.670;2023-03-01T11:20:55;6.18;;;2.35;;
75236;SDS011;63826;48.100;-1.670;2023-03-01T11:23:22;5.33;;;2.30;;
75236;SDS011;63826;48.100;-1.670;2023-03-01T11:25:52;5.47;;;2.63;;
75236;SDS011;63826;48.100;-1.670;2023-03-01T11:28:20;6.15;;;2.60;;
75236;SDS011;63826;48.100;-1.670;2023-03-01T11:36:08;6.57;;;3.03;;
75236;SDS011;63826;48.100;-1.670;2023-03-01T11:38:38;7.40;;;2.55;;
75236;SDS011;63826;48.100;-1.670;2023-03-01T11:41:06;10.80;;;2.70;;
75236;SDS011;63826;48.100;-1.670;2023-03-01T11:46:25;7.60;;;3.13;;
75236;SDS011;63826;48.100;-1.670;2023-03-01T11:51:25;7.28;;;2.67;;
75236;SDS011;63826;48.100;-1.670;2023-03-01T11:56:43;6.53;;;2.88;;
75236;SDS011;63826;48.100;-1.670;2023-03-01T12:21:06;5.30;;;2.35;;
75236;SDS011;63826;48.100;-1.670;2023-03-01T12:23:31;5.38;;;2.38;;
75236;SDS011;63826;48.100;-1.670;2023-03-01T12:34:13;5.30;;;2.05;;
75236;SDS011;63826;48.100;-1.670;2023-03-01T12:46:55;3.72;;;1.85;;
75236;SDS011;63826;48.100;-1.670;2023-03-01T12:49:31;4.77;;;2.00;;
75236;SDS011;63826;48.100;-1.670;2023-03-01T12:52:01;5.40;;;1.80;;
75236;SDS011;63826;48.100;-1.670;2023-03-01T12:54:31;4.45;;;1.60;;
75236;SDS011;63826;48.100;-1.670;2023-03-01T12:57:02;3.90;;;1.70;;
75236;SDS011;63826;48.100;-1.670;2023-03-01T13:02:03;4.90;;;1.77;;
75236;SDS011;63826;48.100;-1.670;2023-03-01T13:14:53;5.35;;;1.80;;
75236;SDS011;63826;48.100;-1.670;2023-03-01T13:17:30;4.55;;;1.85;;
75236;SDS011;63826;48.100;-1.670;2023-03-01T13:19:56;5.63;;;2.40;;
75236;SDS011;63826;48.100;-1.670;2023-03-01T13:22:27;4.30;;;1.88;;
75236;SDS011;63826;48.100;-1.670;2023-03-01T13:25:00;4.03;;;1.80;;
75236;SDS011;63826;48.100;-1.670;2023-03-01T13:27:27;4.43;;;1.60;;
75236;SDS011;63826;48.100;-1.670;2023-03-01T13:29:58;6.90;;;1.92;;
75236;SDS011;63826;48.100;-1.670;2023-03-01T13:32:34;3.78;;;1.75;;
75236;SDS011;63826;48.100;-1.670;2023-03-01T13:37:44;5.20;;;1.50;;
75236;SDS011;63826;48.100;-1.670;2023-03-01T13:42:46;4.75;;;1.60;;
75236;SDS011;63826;48.100;-1.670;2023-03-01T13:45:15;3.08;;;1.30;;
75236;SDS011;63826;48.100;-1.670;2023-03-01T13:47:42;3.95;;;1.50;;
75236;SDS011;63826;48.100;-1.670;2023-03-01T13:50:15;2.72;;;1.52;;
75236;SDS011;63826;48.100;-1.670;2023-03-01T13:52:44;3.53;;;1.30;;
75236;SDS011;63826;48.100;-1.670;2023-03-01T13:57:41;3.97;;;1.40;;
75236;SDS011;63826;48.100;-1.670;2023-03-01T14:00:24;3.72;;;1.00;;
75236;SDS011;63826;48.100;-1.670;2023-03-01T14:03:00;4.55;;;1.40;;
75236;SDS011;63826;48.100;-1.670;2023-03-01T14:05:27;2.90;;;1.05;;
75236;SDS011;63826;48.100;-1.670;2023-03-01T14:07:53;3.40;;;1.10;;
75236;SDS011;63826;48.100;-1.670;2023-03-01T14:10:19;3.13;;;1.10;;
75236;SDS011;63826;48.100;-1.670;2023-03-01T14:12:52;3.22;;;1.08;;
75236;SDS011;63826;48.100;-1.670;2023-03-01T14:15:33;3.42;;;1.20;;
75236;SDS011;63826;48.100;-1.670;2023-03-01T14:20:27;2.67;;;1.10;;
75236;SDS011;63826;48.100;-1.670;2023-03-01T14:22:54;3.78;;;0.98;;
75236;SDS011;63826;48.100;-1.670;2023-03-01T14:27:51;3.63;;;0.93;;
75236;SDS011;63826;48.100;-1.670;2023-03-01T14:30:22;3.20;;;1.08;;
75236;SDS011;63826;48.100;-1.670;2023-03-01T14:33:00;2.67;;;0.70;;
75236;SDS011;63826;48.100;-1.670;2023-03-01T14:35:27;2.83;;;1.05;;
75236;SDS011;63826;48.100;-1.670;2023-03-01T14:37:53;2.60;;;0.90;;
75236;SDS011;63826;48.100;-1.670;2023-03-01T14:40:21;3.57;;;0.90;;
75236;SDS011;63826;48.100;-1.670;2023-03-01T14:42:48;2.40;;;0.95;;
75236;SDS011;63826;48.100;-1.670;2023-03-01T14:45:14;3.33;;;1.00;;
75236;SDS011;63826;48.100;-1.670;2023-03-01T14:47:41;2.03;;;0.80;;
75236;SDS011;63826;48.100;-1.670;2023-03-01T14:50:15;3.40;;;0.82;;
75236;SDS011;63826;48.100;-1.670;2023-03-01T14:52:45;3.47;;;1.00;;
75236;SDS011;63826;48.100;-1.670;2023-03-01T14:55:16;3.90;;;1.15;;
75236;SDS011;63826;48.100;-1.670;2023-03-01T14:57:52;2.83;;;0.70;;
75236;SDS011;63826;48.100;-1.670;2023-03-01T15:00:22;2.38;;;0.90;;
75236;SDS011;63826;48.100;-1.670;2023-03-01T15:02:50;2.20;;;0.73;;
75236;SDS011;63826;48.100;-1.670;2023-03-01T15:05:18;3.27;;;0.80;;
75236;SDS011;63826;48.100;-1.670;2023-03-01T15:07:48;2.45;;;0.80;;
75236;SDS011;63826;48.100;-1.670;2023-03-01T15:10:24;2.22;;;0.80;;
75236;SDS011;63826;48.100;-1.670;2023-03-01T15:12:50;3.50;;;0.90;;
75236;SDS011;63826;48.100;-1.670;2023-03-01T15:15:34;2.63;;;1.08;;
75236;SDS011;63826;48.100;-1.670;2023-03-01T15:18:01;3.78;;;1.40;;
75236;SDS011;63826;48.100;-1.670;2023-03-01T15:20:28;3.50;;;1.25;;
75236;SDS011;63826;48.100;-1.670;2023-03-01T15:23:00;7.95;;;1.30;;
75236;SDS011;63826;48.100;-1.670;2023-03-01T15:25:27;7.10;;;2.13;;
75236;SDS011;63826;48.100;-1.670;2023-03-01T15:27:54;6.78;;;1.70;;
75236;SDS011;63826;48.100;-1.670;2023-03-01T15:30:25;4.90;;;1.50;;
75236;SDS011;63826;48.100;-1.670;2023-03-01T15:35:45;4.55;;;1.60;;
75236;SDS011;63826;48.100;-1.670;2023-03-01T15:40:59;5.32;;;1.80;;
75236;SDS011;63826;48.100;-1.670;2023-03-01T15:43:42;4.75;;;2.00;;
75236;SDS011;63826;48.100;-1.670;2023-03-01T15:46:44;4.38;;;1.88;;
75236;SDS011;63826;48.100;-1.670;2023-03-01T15:49:18;5.40;;;1.85;;
75236;SDS011;63826;48.100;-1.670;2023-03-01T15:51:45;3.55;;;1.60;;
75236;SDS011;63826;48.100;-1.670;2023-03-01T15:54:21;4.05;;;1.77;;
75236;SDS011;63826;48.100;-1.670;2023-03-01T15:56:48;4.47;;;1.95;;
75236;SDS011;63826;48.100;-1.670;2023-03-01T15:59:14;4.60;;;1.90;;
75236;SDS011;63826;48.100;-1.670;2023-03-01T16:01:41;4.85;;;2.05;;
75236;SDS011;63826;48.100;-1.670;2023-03-01T16:04:10;5.55;;;1.77;;
75236;SDS011;63826;48.100;-1.670;2023-03-01T16:06:41;5.57;;;2.13;;
75236;SDS011;63826;48.100;-1.670;2023-03-01T16:09:07;5.07;;;2.10;;
75236;SDS011;63826;48.100;-1.670;2023-03-01T16:11:33;4.57;;;2.22;;
75236;SDS011;63826;48.100;-1.670;2023-03-01T16:14:01;5.75;;;2.40;;
75236;SDS011;63826;48.100;-1.670;2023-03-01T16:16:27;4.32;;;2.15;;
75236;SDS011;63826;48.100;-1.670;2023-03-01T16:18:53;4.93;;;2.50;;
75236;SDS011;63826;48.100;-1.670;2023-03-01T16:21:21;5.45;;;2.40;;
75236;SDS011;63826;48.100;-1.670;2023-03-01T16:23:47;5.05;;;2.40;;
75236;SDS011;63826;48.100;-1.670;2023-03-01T16:26:13;5.22;;;2.42;;
75236;SDS011;63826;48.100;-1.670;2023-03-01T16:28:40;5.93;;;2.33;;
75236;SDS011;63826;48.100;-1.670;2023-03-01T16:31:06;6.37;;;2.77;;
75236;SDS011;63826;48.100;-1.670;2023-03-01T16:33:32;5.22;;;2.58;;
75236;SDS011;63826;48.100;-1.670;2023-03-01T16:35:59;5.10;;;2.67;;
75236;SDS011;63826;48.100;-1.670;2023-03-01T16:38:26;5.93;;;2.67;;
75236;SDS011;63826;48.100;-1.670;2023-03-01T16:40:52;5.28;;;2.40;;
75236;SDS011;63826;48.100;-1.670;2023-03-01T16:43:18;5.90;;;2.50;;
75236;SDS011;63826;48.100;-1.670;2023-03-01T16:45:44;5.80;;;2.55;;
75236;SDS011;63826;48.100;-1.670;2023-03-01T16:48:11;6.18;;;3.10;;